Time;durP1;ratioP1;P1;durP2;ratioP2;P2;SDS_P1;SDS_P2;PMS_P1;PMS_P2;Temp;Humidity;BMP_temperature;BMP_pressure;BME280_temperature;BME280_humidity;BME280_pressure;Samples;Min_cycle;Max_cycle;Signal;HPM_P1;HPM_P2
2022/10/09 00:00:23;;;;;;;3.80;2.42;;;;;;;13.86;72.18;98553.78;5094260;28;20599;-59
2022/10/09 00:02:48;;;;;;;2.83;2.55;;;;;;;13.83;72.34;98553.22;5093028;28;20204;-59
2022/10/09 00:05:14;;;;;;;2.75;2.55;;;;;;;13.85;71.71;98551.31;5094485;28;20160;-59
2022/10/09 00:07:39;;;;;;;2.42;2.33;;;;;;;13.83;72.21;98548.00;5094215;28;20561;-59
2022/10/09 00:10:05;;;;;;;5.00;2.38;;;;;;;13.87;72.29;98560.66;5094111;28;20220;-59
2022/10/09 00:12:30;;;;;;;3.63;2.95;;;;;;;13.96;70.55;98548.69;5094108;28;20189;-59
2022/10/09 00:14:56;;;;;;;3.22;2.75;;;;;;;13.99;70.31;98548.47;5094123;28;20168;-59
2022/10/09 00:17:21;;;;;;;2.60;2.42;;;;;;;14.04;70.18;98544.53;5094051;28;20169;-59
2022/10/09 00:19:47;;;;;;;3.90;2.67;;;;;;;13.99;70.09;98538.84;5094013;28;20661;-59
2022/10/09 00:22:12;;;;;;;3.55;2.50;;;;;;;13.93;70.49;98544.56;5094240;28;20165;-59
2022/10/09 00:24:37;;;;;;;3.25;2.53;;;;;;;13.88;71.40;98546.69;5093877;28;20172;-59
2022/10/09 00:27:03;;;;;;;4.15;2.50;;;;;;;13.91;71.26;98543.00;5093860;28;20168;-59
2022/10/09 00:29:28;;;;;;;3.03;2.83;;;;;;;13.90;71.13;98543.97;5093811;28;20555;-59
2022/10/09 00:31:54;;;;;;;2.75;2.55;;;;;;;13.83;71.38;98538.41;5093673;28;20689;-59
2022/10/09 00:34:19;;;;;;;2.55;2.40;;;;;;;13.78;71.47;98545.78;5093680;28;20654;-59
2022/10/09 00:36:44;;;;;;;2.40;2.20;;;;;;;13.75;72.25;98543.41;5093622;28;20180;-59
2022/10/09 00:39:10;;;;;;;3.08;2.78;;;;;;;13.78;72.03;98540.59;5093777;28;20160;-59
2022/10/09 00:41:35;;;;;;;2.70;2.50;;;;;;;13.68;72.57;98541.41;5093527;28;20574;-59
2022/10/09 00:44:22;;;;;;;3.17;2.88;;;;;;;13.71;72.68;98536.78;5093509;28;20256;-60
2022/10/09 00:46:50;;;;;;;4.47;2.58;;;;;;;13.66;72.96;98543.31;5093640;28;20259;-60
2022/10/09 00:49:21;;;;;;;3.35;2.58;;;;;;;13.66;72.57;98545.91;5093528;28;20175;-58
2022/10/09 00:51:49;;;;;;;4.40;2.60;;;;;;;13.55;73.72;98541.56;5093287;28;20195;-58
2022/10/09 00:54:19;;;;;;;5.13;2.70;;;;;;;13.49;74.33;98536.84;5092050;28;20586;-58
2022/10/09 00:56:45;;;;;;;3.25;2.47;;;;;;;13.48;74.62;98531.75;5093546;28;20176;-58
2022/10/09 00:59:12;;;;;;;2.63;2.42;;;;;;;13.44;75.07;98535.53;5092336;28;20251;-58
2022/10/09 01:01:40;;;;;;;2.65;2.45;;;;;;;13.47;74.92;98535.31;5093202;28;20611;-58
2022/10/09 01:04:05;;;;;;;3.40;2.75;;;;;;;13.44;75.19;98540.72;5093134;28;20301;-58
2022/10/09 01:06:53;;;;;;;3.70;2.40;;;;;;;13.35;76.37;98537.06;5093307;28;20237;-59
2022/10/09 01:09:40;;;;;;;2.72;2.25;;;;;;;13.49;76.07;98539.44;5093109;28;20165;-58
2022/10/09 01:12:20;;;;;;;5.05;2.70;;;;;;;13.46;74.98;98534.47;5092886;28;20200;-59
2022/10/09 01:15:07;;;;;;;2.42;2.22;;;;;;;13.46;74.76;98539.69;5093242;28;20164;-60
2022/10/09 01:17:46;;;;;;;3.28;3.00;;;;;;;13.45;74.40;98535.44;5093196;28;20160;-59
2022/10/09 01:20:25;;;;;;;2.97;2.78;;;;;;;13.30;75.45;98533.19;5091470;28;20202;-59
2022/10/09 01:23:05;;;;;;;3.50;2.40;;;;;;;13.23;76.56;98535.44;5093323;28;20171;-59
2022/10/09 01:25:49;;;;;;;2.67;2.50;;;;;;;13.18;77.13;98539.34;5093039;28;20170;-59
2022/10/09 01:28:17;;;;;;;3.45;2.60;;;;;;;13.20;76.70;98537.44;5091407;28;20545;-59
2022/10/09 01:30:43;;;;;;;3.08;2.78;;;;;;;13.26;76.24;98536.97;5092646;28;20197;-59
2022/10/09 01:33:10;;;;;;;2.30;2.20;;;;;;;13.27;76.06;98538.63;5092581;28;20176;-59
2022/10/09 01:35:36;;;;;;;3.05;2.85;;;;;;;13.22;76.68;98535.53;5092587;28;20234;-59
2022/10/09 01:38:03;;;;;;;2.63;2.42;;;;;;;13.21;76.42;98539.09;5093105;28;20606;-59
2022/10/09 01:40:29;;;;;;;4.57;2.70;;;;;;;13.20;76.40;98534.84;5092527;28;20191;-59
2022/10/09 01:42:55;;;;;;;3.35;2.78;;;;;;;13.15;76.24;98540.41;5092463;28;20661;-59
2022/10/09 01:45:21;;;;;;;2.83;2.58;;;;;;;13.21;76.17;98539.09;5093101;28;20259;-59
2022/10/09 01:47:46;;;;;;;2.80;2.60;;;;;;;13.25;76.02;98535.31;5092414;28;20172;-59
2022/10/09 01:50:24;;;;;;;4.00;2.65;;;;;;;13.18;77.21;98534.16;5092270;28;20726;-59
2022/10/09 01:52:58;;;;;;;3.30;2.65;;;;;;;13.14;77.75;98522.31;5092644;28;20192;-59
2022/10/09 01:55:56;;;;;;;3.42;2.78;;;;;;;13.14;78.31;98527.53;5092564;28;20195;-59
2022/10/09 01:58:51;;;;;;;3.08;2.75;;;;;;;13.08;77.76;98543.59;5080066;28;20575;-59
2022/10/09 02:01:23;;;;;;;2.72;2.50;;;;;;;13.11;76.67;98538.97;5090139;28;20195;-59
2022/10/09 02:03:52;;;;;;;3.22;2.92;;;;;;;13.15;75.90;98534.38;5090982;28;20644;-59
2022/10/09 02:06:18;;;;;;;2.72;2.53;;;;;;;12.97;77.18;98540.97;5092174;28;20172;-59
2022/10/09 02:08:45;;;;;;;3.22;2.90;;;;;;;13.01;77.54;98550.19;5090847;28;20798;-59
2022/10/09 02:11:16;;;;;;;6.35;2.83;;;;;;;13.03;77.71;98541.34;5091754;28;20227;-59
2022/10/09 02:13:43;;;;;;;3.33;2.85;;;;;;;12.96;78.70;98560.09;5092135;28;20185;-60
2022/10/09 02:16:20;;;;;;;2.95;2.63;;;;;;;13.04;78.11;98552.53;5090795;28;20184;-59
2022/10/09 02:18:55;;;;;;;2.55;2.35;;;;;;;13.08;77.25;98553.97;5092138;28;20549;-59
2022/10/09 02:21:33;;;;;;;2.90;2.70;;;;;;;12.98;77.55;98553.84;5091894;28;20191;-59
2022/10/09 02:24:01;;;;;;;2.80;2.50;;;;;;;12.96;77.27;98545.31;5092197;28;20646;-59
2022/10/09 02:26:27;;;;;;;4.82;2.72;;;;;;;12.99;77.29;98549.47;5091959;28;20176;-59
2022/10/09 02:28:53;;;;;;;2.97;2.75;;;;;;;12.98;78.01;98560.81;5092103;28;20172;-59
2022/10/09 02:31:23;;;;;;;3.05;2.85;;;;;;;12.97;77.68;98557.41;5091889;28;20192;-59
2022/10/09 02:33:57;;;;;;;3.03;2.80;;;;;;;12.98;78.08;98564.25;5092177;28;20180;-59
2022/10/09 02:36:24;;;;;;;2.75;2.55;;;;;;;12.96;78.15;98560.09;5091902;28;20229;-59
2022/10/09 02:38:49;;;;;;;3.00;2.80;;;;;;;13.00;77.68;98556.34;5091870;28;20537;-59
2022/10/09 02:41:15;;;;;;;3.25;2.20;;;;;;;13.05;77.90;98559.38;5091846;28;20179;-59
2022/10/09 02:43:40;;;;;;;3.17;2.90;;;;;;;13.08;77.48;98559.16;5091987;28;20184;-59
2022/10/09 02:46:06;;;;;;;2.40;2.20;;;;;;;13.02;76.95;98538.84;5091833;28;20173;-58
2022/10/09 02:48:32;;;;;;;2.80;2.58;;;;;;;13.08;76.94;98552.19;5124644;28;20670;-58
2022/10/09 02:50:58;;;;;;;3.00;2.80;;;;;;;13.06;77.06;98553.28;5091972;28;20199;-59
2022/10/09 02:53:23;;;;;;;2.70;2.50;;;;;;;13.00;77.37;98559.75;5090449;28;20192;-58
2022/10/09 02:55:49;;;;;;;3.05;2.75;;;;;;;12.97;77.64;98552.19;5092065;28;20177;-58
2022/10/09 02:58:14;;;;;;;2.72;2.53;;;;;;;12.95;77.65;98558.41;5091647;28;20169;-59
2022/10/09 03:00:40;;;;;;;3.03;2.72;;;;;;;12.97;77.69;98559.16;5091752;28;20169;-59
2022/10/09 03:03:05;;;;;;;2.90;2.67;;;;;;;12.91;78.44;98550.03;5091943;28;20168;-58
2022/10/09 03:05:30;;;;;;;3.40;2.58;;;;;;;12.93;78.21;98562.88;5107330;28;20199;-59
2022/10/09 03:07:57;;;;;;;6.43;2.83;;;;;;;12.97;78.12;98562.59;5091981;28;20179;-59
2022/10/09 03:10:23;;;;;;;2.95;2.65;;;;;;;12.95;78.03;98558.41;5091458;28;20696;-59
2022/10/09 03:12:48;;;;;;;4.93;2.58;;;;;;;13.00;78.22;98564.13;5091757;28;20176;-59
2022/10/09 03:15:14;;;;;;;3.05;2.75;;;;;;;12.94;78.97;98560.19;5091767;28;20165;-59
2022/10/09 03:17:39;;;;;;;2.80;2.60;;;;;;;12.94;78.36;98560.19;5091766;28;20173;-59
2022/10/09 03:20:06;;;;;;;6.13;2.80;;;;;;;12.92;78.55;98559.47;5091340;28;20184;-59
2022/10/09 03:22:32;;;;;;;3.03;2.83;;;;;;;12.95;78.95;98567.06;5092229;28;20175;-58
2022/10/09 03:24:57;;;;;;;6.97;2.80;;;;;;;12.90;79.32;98566.53;5095093;28;20177;-59
2022/10/09 03:27:22;;;;;;;2.70;2.50;;;;;;;12.95;78.76;98571.41;5095073;28;20180;-59
2022/10/09 03:29:48;;;;;;;3.10;2.90;;;;;;;12.85;79.06;98567.84;5095022;28;20183;-59
2022/10/09 03:32:13;;;;;;;2.75;2.55;;;;;;;12.88;79.85;98570.19;5093600;28;20188;-59
2022/10/09 03:34:39;;;;;;;2.90;2.70;;;;;;;12.85;79.62;98573.03;5094983;28;20222;-59
2022/10/09 03:37:04;;;;;;;3.08;2.65;;;;;;;12.86;79.81;98579.88;5095095;28;20561;-59
2022/10/09 03:39:30;;;;;;;2.95;2.75;;;;;;;12.90;79.56;98576.13;5095066;28;20181;-60
2022/10/09 03:41:55;;;;;;;3.63;2.80;;;;;;;12.92;78.82;98579.41;5094992;28;20194;-59
2022/10/09 03:44:21;;;;;;;4.50;2.80;;;;;;;12.95;78.70;98579.19;5094651;28;20259;-59
2022/10/09 03:46:46;;;;;;;3.15;2.80;;;;;;;12.97;78.93;98572.13;5094654;28;20198;-59
2022/10/09 03:49:12;;;;;;;2.75;2.55;;;;;;;12.99;78.81;98580.63;5094577;28;20168;-59
2022/10/09 03:51:37;;;;;;;2.75;2.55;;;;;;;12.97;78.98;98583.38;5094494;28;20199;-59
2022/10/09 03:54:03;;;;;;;3.00;2.80;;;;;;;13.01;78.06;98579.56;5094807;28;20184;-59
2022/10/09 03:56:29;;;;;;;3.30;2.50;;;;;;;12.94;78.70;98577.50;5094388;28;20173;-59
2022/10/09 03:58:54;;;;;;;3.08;2.80;;;;;;;12.88;79.06;98576.22;5094424;28;20173;-59
2022/10/09 04:01:19;;;;;;;2.85;2.63;;;;;;;12.70;80.01;98579.34;5127244;27;20180;-59
2022/10/09 04:03:45;;;;;;;5.32;3.35;;;;;;;12.75;79.96;98590.22;5093102;28;20184;-59
2022/10/09 04:06:10;;;;;;;2.83;2.60;;;;;;;12.78;79.65;98579.63;5094378;28;20169;-60
2022/10/09 04:08:36;;;;;;;2.83;2.63;;;;;;;12.78;80.24;98587.41;5094415;28;20246;-59
2022/10/09 04:11:02;;;;;;;2.92;2.72;;;;;;;12.77;80.50;98590.97;5094129;28;20204;-59
2022/10/09 04:13:28;;;;;;;2.90;2.70;;;;;;;12.74;80.77;98594.63;5094451;28;20272;-59
2022/10/09 04:15:54;;;;;;;4.28;2.90;;;;;;;12.75;81.22;98578.09;5092823;28;20266;-59
2022/10/09 04:18:19;;;;;;;3.10;2.90;;;;;;;12.66;82.04;98583.13;5094221;28;20660;-59
2022/10/09 04:20:50;;;;;;;3.47;2.80;;;;;;;12.59;83.47;98589.69;5093882;28;20189;-59
2022/10/09 04:23:17;;;;;;;2.90;2.70;;;;;;;12.70;82.20;98579.34;5094092;28;20627;-59
2022/10/09 04:25:42;;;;;;;6.45;2.95;;;;;;;12.75;80.91;98579.84;5094171;28;20260;-59
2022/10/09 04:28:07;;;;;;;4.32;3.03;;;;;;;12.76;80.61;98571.09;5094043;28;20259;-59
2022/10/09 04:30:33;;;;;;;3.05;2.83;;;;;;;12.74;80.27;98583.38;5093957;28;20204;-59
2022/10/09 04:32:58;;;;;;;4.57;3.40;;;;;;;12.75;79.95;98592.81;5093610;28;20183;-59
2022/10/09 04:35:24;;;;;;;3.17;2.88;;;;;;;12.77;79.76;98586.56;5093701;28;20179;-60
2022/10/09 04:37:49;;;;;;;3.55;3.10;;;;;;;12.69;80.17;98588.09;5093619;28;20700;-59
2022/10/09 04:40:15;;;;;;;4.45;2.60;;;;;;;12.72;81.09;98590.47;5093584;28;20175;-59
2022/10/09 04:42:40;;;;;;;3.97;2.60;;;;;;;12.70;81.16;98590.56;5093613;28;20184;-59
2022/10/09 04:45:06;;;;;;;6.07;2.80;;;;;;;12.72;80.21;98593.06;5093735;28;20172;-59
2022/10/09 04:47:33;;;;;;;4.03;2.83;;;;;;;12.71;80.09;98591.41;5093472;28;20172;-59
2022/10/09 04:49:58;;;;;;;3.95;3.50;;;;;;;12.73;80.82;98592.94;5093348;28;20536;-59
2022/10/09 04:52:24;;;;;;;2.80;2.60;;;;;;;12.62;81.76;98595.53;5093622;28;20263;-59
2022/10/09 04:54:49;;;;;;;3.17;2.90;;;;;;;12.68;81.82;98591.63;5092054;28;20176;-59
2022/10/09 04:57:15;;;;;;;4.70;2.88;;;;;;;12.71;81.69;98583.63;5093308;28;20172;-59
2022/10/09 04:59:41;;;;;;;2.90;2.63;;;;;;;12.79;81.32;98586.47;5093177;28;20191;-61
2022/10/09 05:02:06;;;;;;;4.35;3.42;;;;;;;12.83;80.54;98596.50;5093319;28;20203;-59
2022/10/09 05:04:32;;;;;;;3.15;2.95;;;;;;;12.88;79.82;98598.75;5093430;28;20172;-59
2022/10/09 05:06:57;;;;;;;2.92;2.72;;;;;;;12.85;79.96;98599.00;5093072;28;20179;-59
2022/10/09 05:09:23;;;;;;;3.63;3.25;;;;;;;12.86;79.46;98605.84;5093007;28;20683;-59
2022/10/09 05:11:48;;;;;;;3.80;3.08;;;;;;;12.85;79.76;98602.44;5092840;28;20215;-59
2022/10/09 05:14:13;;;;;;;3.70;3.20;;;;;;;12.82;80.10;98601.81;5092934;28;20178;-59
2022/10/09 05:16:39;;;;;;;4.63;3.53;;;;;;;12.90;79.67;98612.47;5092845;28;20271;-59
2022/10/09 05:19:04;;;;;;;2.58;2.38;;;;;;;12.95;79.31;98606.00;5092825;28;20172;-59
2022/10/09 05:21:30;;;;;;;3.22;2.92;;;;;;;13.05;78.69;98614.78;5092683;28;20194;-59
2022/10/09 05:23:56;;;;;;;3.75;3.40;;;;;;;13.11;78.63;98610.88;5091475;28;20177;-59
2022/10/09 05:26:22;;;;;;;3.60;2.85;;;;;;;13.14;78.41;98601.09;5092751;28;20180;-59
2022/10/09 05:28:48;;;;;;;3.13;2.92;;;;;;;13.20;78.20;98599.81;5093092;28;20180;-60
2022/10/09 05:31:25;;;;;;;4.07;2.72;;;;;;;13.22;78.12;98601.34;5092968;28;20256;-61
2022/10/09 05:33:52;;;;;;;2.78;2.58;;;;;;;13.34;77.99;98617.75;5093057;28;20255;-59
2022/10/09 05:36:18;;;;;;;3.58;3.00;;;;;;;13.41;78.26;98618.97;5092824;28;20245;-59
2022/10/09 05:38:44;;;;;;;3.15;2.85;;;;;;;13.52;77.22;98613.75;5091716;28;20761;-59
2022/10/09 05:41:12;;;;;;;2.88;2.67;;;;;;;13.56;77.07;98607.38;5092458;28;20251;-59
2022/10/09 05:43:40;;;;;;;5.90;2.65;;;;;;;13.67;76.39;98621.22;5092994;28;20176;-59
2022/10/09 05:46:10;;;;;;;3.33;3.03;;;;;;;13.75;76.02;98623.19;5091990;28;20568;-59
2022/10/09 05:48:36;;;;;;;4.93;3.05;;;;;;;13.77;76.01;98626.53;5092417;28;20614;-60
2022/10/09 05:51:16;;;;;;;3.00;2.80;;;;;;;13.79;75.46;98632.41;5092243;28;20754;-59
2022/10/09 05:53:43;;;;;;;3.17;2.97;;;;;;;13.80;75.25;98636.66;5092411;28;20199;-59
2022/10/09 05:56:20;;;;;;;3.45;3.08;;;;;;;13.85;75.62;98631.94;5090969;28;20183;-61
2022/10/09 05:58:56;;;;;;;3.28;2.50;;;;;;;13.82;75.37;98634.78;5092538;28;20167;-59
2022/10/09 06:01:23;;;;;;;2.80;2.60;;;;;;;13.86;75.00;98633.59;5092305;28;20164;-59
2022/10/09 06:03:50;;;;;;;3.85;3.17;;;;;;;13.80;75.43;98642.72;5092171;28;20691;-59
2022/10/09 06:06:18;;;;;;;2.70;2.50;;;;;;;13.88;75.46;98636.91;5092110;28;20176;-59
2022/10/09 06:08:44;;;;;;;3.67;3.20;;;;;;;13.95;75.25;98644.09;5092117;28;20188;-59
2022/10/09 06:11:15;;;;;;;3.88;2.75;;;;;;;13.99;75.05;98652.53;5092029;28;20219;-59
2022/10/09 06:13:42;;;;;;;3.42;3.15;;;;;;;14.00;75.00;98649.78;5092233;28;20176;-59
2022/10/09 06:16:10;;;;;;;3.60;3.33;;;;;;;14.13;74.24;98654.84;5092316;28;20176;-59
2022/10/09 06:18:36;;;;;;;3.10;2.80;;;;;;;14.17;74.66;98656.28;5090759;28;20635;-59
2022/10/09 06:21:02;;;;;;;2.80;2.60;;;;;;;14.16;74.58;98654.59;5091838;28;20258;-59
2022/10/09 06:23:28;;;;;;;3.22;3.03;;;;;;;14.22;74.21;98662.78;5091974;28;20242;-59
2022/10/09 06:25:56;;;;;;;3.10;2.80;;;;;;;14.31;74.12;98661.22;5092002;28;20233;-59
2022/10/09 06:28:22;;;;;;;3.40;3.10;;;;;;;14.41;73.07;98659.56;5091939;28;20646;-59
2022/10/09 06:30:48;;;;;;;4.90;3.38;;;;;;;14.39;73.69;98664.03;5091913;28;20196;-59
2022/10/09 06:35:48;;;;;;;2.97;2.78;;;;;;;14.49;72.83;98658.00;4981344;26;20237;-57
2022/10/09 06:38:14;;;;;;;2.97;2.72;;;;;;;14.61;72.79;98663.97;5032260;28;20189;-57
2022/10/09 06:40:39;;;;;;;4.32;2.65;;;;;;;14.57;73.05;98663.41;5051194;28;20169;-57
2022/10/09 06:43:05;;;;;;;2.50;2.38;;;;;;;14.74;72.11;98667.22;5051518;28;20553;-57
2022/10/09 06:45:35;;;;;;;3.47;2.80;;;;;;;14.88;71.59;98670.38;5051823;28;20193;-57
2022/10/09 06:48:01;;;;;;;4.03;2.60;;;;;;;14.91;71.39;98674.50;5051602;28;20164;-57
2022/10/09 06:50:26;;;;;;;3.17;2.97;;;;;;;15.01;71.34;98676.25;5051487;28;20197;-57
2022/10/09 06:52:51;;;;;;;2.97;2.72;;;;;;;15.10;71.46;98677.28;5050271;28;20174;-57
2022/10/09 06:55:17;;;;;;;5.05;2.72;;;;;;;15.23;70.34;98691.75;5051946;28;20177;-57
2022/10/09 06:57:42;;;;;;;4.20;3.28;;;;;;;15.34;69.52;98680.50;5052765;28;20184;-57
2022/10/09 07:00:08;;;;;;;2.67;2.55;;;;;;;15.39;69.16;98680.94;5055759;28;20245;-57
2022/10/09 07:02:34;;;;;;;2.75;2.47;;;;;;;15.44;69.38;98681.34;5055488;28;20170;-57
2022/10/09 07:04:59;;;;;;;2.92;2.67;;;;;;;15.49;69.18;98682.63;5055422;28;20650;-57
2022/10/09 07:07:24;;;;;;;3.35;2.90;;;;;;;15.61;68.64;98680.75;5055370;28;20174;-57
2022/10/09 07:09:51;;;;;;;3.15;2.78;;;;;;;15.75;68.09;98686.47;5055379;28;20261;-57
2022/10/09 07:12:17;;;;;;;3.30;3.05;;;;;;;15.86;68.36;98690.78;5054940;28;20650;-57
2022/10/09 07:14:42;;;;;;;4.32;3.00;;;;;;;15.93;68.15;98689.31;5054888;28;20240;-57
2022/10/09 07:17:08;;;;;;;4.88;3.65;;;;;;;16.02;67.88;98701.53;5055109;28;20181;-57
2022/10/09 07:19:34;;;;;;;5.15;3.25;;;;;;;16.09;67.96;98695.69;5036844;28;20629;-57
2022/10/09 07:21:59;;;;;;;3.38;3.17;;;;;;;16.22;67.76;98708.50;5054804;28;20261;-58
2022/10/09 07:24:25;;;;;;;5.05;3.50;;;;;;;16.40;67.03;98701.72;5054706;28;20173;-58
2022/10/09 07:26:50;;;;;;;4.20;3.80;;;;;;;16.56;66.62;98699.41;5054671;28;20556;-57
2022/10/09 07:29:18;;;;;;;5.50;3.70;;;;;;;16.69;66.29;98702.59;5054939;28;20268;-57
2022/10/09 07:31:43;;;;;;;4.15;3.20;;;;;;;16.80;66.41;98699.84;5054428;28;20209;-57
2022/10/09 07:34:09;;;;;;;6.07;2.90;;;;;;;16.94;66.08;98708.13;5052699;28;20270;-58
2022/10/09 07:36:35;;;;;;;4.05;3.00;;;;;;;17.05;65.36;98700.13;5055212;28;20170;-57
2022/10/09 07:39:00;;;;;;;3.30;3.10;;;;;;;17.19;64.82;98707.56;5055416;28;20184;-58
2022/10/09 07:41:28;;;;;;;3.22;2.92;;;;;;;17.28;63.50;98700.66;5054791;28;20165;-57
2022/10/09 07:43:54;;;;;;;4.05;3.25;;;;;;;17.37;62.59;98708.50;5054469;28;20177;-57
2022/10/09 07:46:21;;;;;;;3.28;3.08;;;;;;;17.51;62.65;98715.13;5054774;28;20650;-59
2022/10/09 07:48:48;;;;;;;3.95;2.75;;;;;;;17.61;62.38;98708.88;5054363;28;20177;-58
2022/10/09 07:51:20;;;;;;;6.70;3.42;;;;;;;17.70;61.21;98715.91;5054322;28;20694;-58
2022/10/09 07:53:46;;;;;;;3.60;3.22;;;;;;;17.80;61.99;98723.72;5054307;28;20712;-58
2022/10/09 07:56:17;;;;;;;3.92;3.33;;;;;;;17.93;62.53;98713.75;5054582;28;20216;-58
2022/10/09 07:58:49;;;;;;;6.38;3.38;;;;;;;18.07;61.79;98710.69;5054516;28;20177;-58
2022/10/09 08:01:15;;;;;;;3.28;3.08;;;;;;;18.20;61.06;98716.41;5053004;28;20166;-58
2022/10/09 08:03:41;;;;;;;4.38;3.47;;;;;;;18.31;60.99;98717.06;5054178;28;20643;-58
2022/10/09 08:06:06;;;;;;;5.18;3.03;;;;;;;18.44;60.48;98714.94;5054061;28;20197;-58
2022/10/09 08:08:32;;;;;;;5.25;3.38;;;;;;;18.53;59.48;98711.44;5053928;28;20595;-57
2022/10/09 08:10:58;;;;;;;5.78;3.33;;;;;;;18.52;59.40;98716.81;5054518;28;20200;-57
2022/10/09 08:13:24;;;;;;;3.53;3.25;;;;;;;18.51;58.75;98716.00;5054247;28;20181;-57
2022/10/09 08:15:50;;;;;;;5.55;3.00;;;;;;;18.64;57.93;98721.72;5053945;28;20637;-57
2022/10/09 08:18:15;;;;;;;8.73;3.45;;;;;;;18.73;58.60;98727.88;5053791;28;20186;-57
2022/10/09 08:20:41;;;;;;;5.07;3.72;;;;;;;18.78;57.71;98723.00;5053892;28;20201;-58
2022/10/09 08:23:06;;;;;;;5.70;3.80;;;;;;;18.87;57.90;98725.56;5053790;28;20660;-58
2022/10/09 08:25:35;;;;;;;3.90;3.50;;;;;;;18.95;57.73;98722.19;5053695;28;20180;-58
2022/10/09 08:28:01;;;;;;;6.40;3.33;;;;;;;19.03;56.99;98719.63;5053803;28;20173;-57
2022/10/09 08:30:27;;;;;;;4.22;3.83;;;;;;;19.09;56.62;98721.66;5053454;28;20661;-57
2022/10/09 08:32:52;;;;;;;3.53;3.22;;;;;;;19.14;56.21;98716.78;5053899;28;20339;-56
2022/10/09 08:35:18;;;;;;;4.35;3.92;;;;;;;19.20;55.93;98730.13;5035497;28;20267;-57
2022/10/09 08:37:43;;;;;;;3.67;3.38;;;;;;;19.27;55.40;98715.47;5035670;28;20649;-58
2022/10/09 08:40:21;;;;;;;8.60;3.70;;;;;;;19.35;54.79;98718.13;5053437;28;20166;-58
2022/10/09 08:42:55;;;;;;;4.88;3.25;;;;;;;19.42;54.58;98713.13;5052223;28;20192;-57
2022/10/09 08:45:20;;;;;;;9.45;3.92;;;;;;;19.46;54.19;98714.47;5053549;28;20188;-58
2022/10/09 08:47:55;;;;;;;3.95;3.55;;;;;;;19.54;53.24;98717.13;5053319;28;20688;-58
2022/10/09 08:50:34;;;;;;;9.55;4.03;;;;;;;19.61;53.14;98718.16;5053251;28;20258;-58
2022/10/09 08:53:18;;;;;;;8.45;4.28;;;;;;;19.48;52.57;98712.50;5053491;28;20184;-58
2022/10/09 08:55:54;;;;;;;5.95;3.92;;;;;;;19.51;52.96;98709.56;5035293;28;20568;-58
2022/10/09 08:58:22;;;;;;;8.68;3.90;;;;;;;19.61;53.12;98699.78;5051848;28;20181;-58
2022/10/09 09:00:47;;;;;;;5.82;3.75;;;;;;;19.58;52.54;98700.13;5053336;28;20173;-58
2022/10/09 09:03:50;;;;;;;7.55;3.55;;;;;;;19.69;52.82;98697.22;5053164;28;20180;-58
2022/10/09 09:06:30;;;;;;;3.80;3.40;;;;;;;19.79;51.59;98700.56;5052917;28;20250;-57
2022/10/09 09:09:18;;;;;;;4.40;3.80;;;;;;;19.79;51.89;98703.19;5053479;28;20161;-57
2022/10/09 09:11:54;;;;;;;7.80;3.97;;;;;;;19.90;52.03;98703.75;5053026;28;20204;-57
2022/10/09 09:14:25;;;;;;;4.25;3.40;;;;;;;20.01;51.59;98698.22;5053114;28;20161;-57
2022/10/09 09:17:06;;;;;;;7.18;3.80;;;;;;;20.11;50.75;98701.56;5044950;28;20256;-58
2022/10/09 09:19:57;;;;;;;6.25;3.70;;;;;;;20.19;50.82;98695.53;5033114;28;20611;-57
2022/10/09 09:22:24;;;;;;;6.68;3.30;;;;;;;20.21;50.70;98697.03;4994219;28;20200;-57
2022/10/09 09:24:51;;;;;;;6.38;3.67;;;;;;;20.24;50.11;98696.72;5032032;28;20253;-57
2022/10/09 09:27:19;;;;;;;7.10;3.38;;;;;;;20.34;49.87;98696.59;5032916;28;20170;-57
2022/10/09 09:29:56;;;;;;;9.23;3.88;;;;;;;20.38;49.94;98690.03;5032541;28;20177;-57
2022/10/09 09:32:25;;;;;;;5.28;3.78;;;;;;;20.47;49.74;98691.69;5032856;28;20227;-57
2022/10/09 09:34:58;;;;;;;7.97;3.53;;;;;;;20.55;50.08;98689.91;5032508;28;20601;-58
2022/10/09 09:37:23;;;;;;;10.07;4.63;;;;;;;20.62;49.73;98690.91;5032504;28;20711;-57
2022/10/09 09:39:49;;;;;;;4.25;3.88;;;;;;;20.69;48.84;98691.09;5032717;28;20173;-57
2022/10/09 09:42:17;;;;;;;9.55;3.95;;;;;;;20.79;48.67;98689.13;5032408;28;20166;-58
2022/10/09 09:45:16;;;;;;;9.15;5.20;;;;;;;20.86;48.20;98684.91;5032617;28;20181;-58
2022/10/09 09:47:48;;;;;;;8.02;3.83;;;;;;;20.99;47.99;98690.53;5032238;28;20264;-58
2022/10/09 09:50:14;;;;;;;11.32;5.30;;;;;;;21.06;47.16;98688.88;5032499;28;20253;-58
2022/10/09 09:52:43;;;;;;;6.45;3.78;;;;;;;21.09;46.47;98678.03;5032691;28;20261;-58
2022/10/09 09:55:28;;;;;;;6.43;3.78;;;;;;;21.12;46.96;98680.31;5032479;28;20643;-58
2022/10/09 09:58:04;;;;;;;7.80;3.92;;;;;;;20.98;47.00;98676.53;5015226;28;20182;-58
2022/10/09 10:00:30;;;;;;;7.30;4.18;;;;;;;21.06;47.37;98673.94;5032704;28;20599;-58
2022/10/09 10:03:15;;;;;;;9.13;4.65;;;;;;;21.19;46.97;98676.03;5032386;28;20265;-58
2022/10/09 10:05:43;;;;;;;14.15;4.38;;;;;;;21.26;47.11;98674.38;5032014;28;20631;-58
2022/10/09 10:08:13;;;;;;;6.57;3.55;;;;;;;21.33;47.27;98664.88;5032089;28;20182;-58
2022/10/09 10:10:44;;;;;;;7.57;3.90;;;;;;;21.45;47.56;98671.44;5031973;28;20197;-58
2022/10/09 10:13:18;;;;;;;8.27;3.95;;;;;;;21.56;46.67;98665.81;5032305;28;20623;-58
2022/10/09 10:15:53;;;;;;;9.20;4.63;;;;;;;21.60;46.40;98669.75;5032514;28;20661;-58
2022/10/09 10:18:19;;;;;;;5.95;3.88;;;;;;;21.58;45.96;98661.19;5032528;28;20177;-58
2022/10/09 10:20:48;;;;;;;6.28;3.58;;;;;;;21.67;46.08;98655.78;5031955;28;20570;-58
2022/10/09 10:23:43;;;;;;;3.88;3.28;;;;;;;21.85;46.46;98660.84;5031908;28;20239;-57
2022/10/09 10:26:23;;;;;;;7.28;3.58;;;;;;;21.99;45.48;98658.31;5029725;28;20200;-57
2022/10/09 10:28:55;;;;;;;5.25;3.83;;;;;;;22.10;45.07;98654.50;5031842;28;20646;-57
2022/10/09 10:31:40;;;;;;;7.80;4.05;;;;;;;22.32;44.92;98659.81;5032388;28;20634;-57
2022/10/09 10:34:15;;;;;;;3.63;3.28;;;;;;;22.52;43.93;98658.44;5035267;28;20205;-57
2022/10/09 10:36:41;;;;;;;11.02;3.70;;;;;;;22.72;43.57;98650.88;5035845;28;20177;-57
2022/10/09 10:39:45;;;;;;;4.22;3.22;;;;;;;22.89;43.84;98652.44;5035810;28;20170;-57
2022/10/09 10:42:25;;;;;;;7.60;3.28;;;;;;;23.10;43.67;98657.84;4994986;28;20638;-57
2022/10/09 10:45:07;;;;;;;4.30;3.70;;;;;;;23.20;43.29;98642.63;5035998;28;20537;-58
2022/10/09 10:47:40;;;;;;;7.13;3.30;;;;;;;23.37;42.75;98658.13;5036279;28;20161;-57
2022/10/09 10:50:12;;;;;;;3.42;3.13;;;;;;;23.49;42.86;98646.13;5035567;28;20159;-57
2022/10/09 10:52:37;;;;;;;4.43;3.22;;;;;;;23.57;41.81;98639.94;5035773;28;20161;-57
2022/10/09 10:55:42;;;;;;;6.25;3.25;;;;;;;23.66;42.84;98638.88;5035494;28;20188;-57
2022/10/09 10:58:25;;;;;;;4.80;3.15;;;;;;;23.78;42.04;98632.94;5035747;28;20308;-57
2022/10/09 11:01:12;;;;;;;7.70;3.63;;;;;;;23.86;42.27;98632.84;5017748;28;20204;-57
2022/10/09 11:04:23;;;;;;;10.32;3.95;;;;;;;23.90;40.92;98634.13;5035395;28;20182;-57
2022/10/09 11:07:12;;;;;;;4.35;3.55;;;;;;;23.95;41.59;98623.84;4955670;28;20761;-58
2022/10/09 11:09:55;;;;;;;9.65;4.07;;;;;;;24.06;41.45;98619.94;4955710;29;20218;-58
2022/10/09 11:12:47;;;;;;;5.45;3.75;;;;;;;24.19;41.30;98627.00;5018293;28;20225;-59
2022/10/09 11:15:52;;;;;;;4.30;3.35;;;;;;;24.32;41.05;98624.50;5035746;28;20249;-58
2022/10/09 11:18:46;;;;;;;3.85;3.00;;;;;;;24.44;41.32;98620.38;5035362;28;20173;-58
2022/10/09 11:21:36;;;;;;;5.07;3.28;;;;;;;24.53;40.46;98619.25;5035377;28;20185;-58
2022/10/09 11:24:25;;;;;;;4.07;3.10;;;;;;;24.62;39.71;98620.78;5035529;28;20166;-57
2022/10/09 11:27:07;;;;;;;4.20;3.45;;;;;;;24.70;39.49;98618.03;5034827;28;20188;-57
2022/10/09 11:29:46;;;;;;;3.83;3.53;;;;;;;24.74;39.13;98623.78;5035172;28;20205;-56
2022/10/09 11:32:21;;;;;;;5.07;3.50;;;;;;;24.83;39.07;98618.16;5035086;28;20677;-57
2022/10/09 11:35:23;;;;;;;4.32;2.95;;;;;;;24.88;39.30;98614.94;5016801;28;20728;-57
2022/10/09 11:37:59;;;;;;;4.47;3.22;;;;;;;24.95;39.55;98611.34;5031421;28;20200;-57
2022/10/09 11:40:31;;;;;;;3.72;3.42;;;;;;;24.92;39.18;98601.16;5034998;28;20153;-58
2022/10/09 11:43:24;;;;;;;3.72;3.17;;;;;;;25.06;38.63;98616.13;5033874;28;20546;-57
2022/10/09 11:46:05;;;;;;;3.70;2.67;;;;;;;25.00;38.91;98603.66;5034354;28;20162;-57
2022/10/09 11:48:36;;;;;;;4.95;3.17;;;;;;;24.93;39.05;98599.31;5034006;28;20561;-58
2022/10/09 11:51:15;;;;;;;3.90;3.47;;;;;;;24.93;39.41;98605.44;5032548;28;20274;-58